Terminal Aerodrome Forecast
Issued by NWS

Home | Current Version | Previous Version | Text Only | Print | Product List | Glossary On
Versions: 1 2 3 4 5 6 7 8 9 10 11 12 13 14 15 16 17 18 19 20 21 22 23 24 25 26 27 28 29 30 31 32 33 34 35 36 37 38 39 40 41 42 43 44 45
000
FTUS45 KTWC 191100
TAFOLS
TAF
KOLS 191122Z 1912/2012 14006KT P6SM SCT015 BKN025
      TEMPO 1912/1914 4SM BR SCT010 BKN025
     FM191800 22006KT P6SM VCSH SCT030 BKN050
     FM192200 26007KT P6SM SCT040 BKN060
     FM200300 VRB03KT P6SM SCT070=

USA.gov is the U.S. government's official web portal to all federal, state and local government web resources and services.